createdAt,value
2018-06-29T00:00:08.899Z,19.70
2018-06-29T00:02:37.874Z,19.50
2018-06-29T00:05:07.966Z,19.50
2018-06-29T00:07:36.875Z,19.50
2018-06-29T00:10:06.487Z,19.50
2018-06-29T00:12:35.457Z,19.40
2018-06-29T00:15:04.503Z,19.40
2018-06-29T00:17:33.491Z,19.30
2018-06-29T00:20:02.384Z,19.30
2018-06-29T00:22:31.318Z,19.30
2018-06-29T00:25:00.691Z,19.20
2018-06-29T00:27:29.666Z,19.30
2018-06-29T00:29:58.560Z,19.20
2018-06-29T00:32:27.539Z,19.20
2018-06-29T00:34:56.494Z,19.20
2018-06-29T00:37:25.426Z,19.20
2018-06-29T00:39:54.364Z,19.20
2018-06-29T00:42:23.815Z,19.10
2018-06-29T00:44:52.761Z,19.10
2018-06-29T00:47:21.680Z,19.10
2018-06-29T00:49:50.670Z,19.10
2018-06-29T00:52:19.636Z,19.10
2018-06-29T00:54:48.594Z,19.10
2018-06-29T00:57:17.530Z,19.00
2018-06-29T00:59:46.457Z,19.00
2018-06-29T01:02:15.353Z,19.00
2018-06-29T01:04:44.279Z,18.90
2018-06-29T01:07:13.175Z,18.90
2018-06-29T01:09:42.495Z,18.90
2018-06-29T01:12:11.439Z,18.80
2018-06-29T01:17:09.496Z,18.80
2018-06-29T01:19:38.556Z,18.80
2018-06-29T01:22:07.542Z,18.80
2018-06-29T01:24:36.467Z,18.80
2018-06-29T01:27:05.480Z,18.80
2018-06-29T01:29:34.500Z,18.90
2018-06-29T01:32:03.523Z,18.80
2018-06-29T01:34:32.446Z,18.80
2018-06-29T01:37:01.410Z,18.80
2018-06-29T01:39:30.316Z,18.70
2018-06-29T01:41:59.292Z,18.70
2018-06-29T01:44:28.204Z,18.60
2018-06-29T01:46:57.185Z,18.60
2018-06-29T01:49:26.139Z,18.50
2018-06-29T01:51:55.041Z,18.50
2018-06-29T01:54:24.017Z,18.40
2018-06-29T01:56:53.033Z,18.50
2018-06-29T01:59:21.958Z,18.50
2018-06-29T02:01:51.213Z,18.50
2018-06-29T02:04:20.236Z,18.60
2018-06-29T02:06:49.591Z,18.60
2018-06-29T02:09:18.566Z,18.60
2018-06-29T02:11:47.495Z,18.70
2018-06-29T02:14:16.422Z,18.70
2018-06-29T02:16:45.347Z,18.70
2018-06-29T02:19:14.240Z,18.70
2018-06-29T02:21:43.187Z,18.70
2018-06-29T02:24:12.094Z,18.70
2018-06-29T02:26:41.018Z,18.70
2018-06-29T02:29:09.954Z,18.60
2018-06-29T02:31:39.006Z,18.60
2018-06-29T02:34:07.919Z,18.60
2018-06-29T02:36:36.843Z,18.60
2018-06-29T02:39:09.999Z,18.60
2018-06-29T02:41:38.996Z,18.60
2018-06-29T02:44:07.942Z,18.60
2018-06-29T02:46:37.016Z,18.60
2018-06-29T02:49:06.019Z,18.60
2018-06-29T02:51:35.356Z,18.50
2018-06-29T02:56:33.977Z,18.40
2018-06-29T02:59:02.938Z,18.30
2018-06-29T03:01:31.874Z,18.30
2018-06-29T03:04:00.862Z,18.30
2018-06-29T03:06:29.801Z,18.30
2018-06-29T03:08:59.164Z,18.30
2018-06-29T03:11:28.084Z,18.50
2018-06-29T03:13:57.034Z,18.60
2018-06-29T03:16:25.931Z,18.70
2018-06-29T03:18:54.855Z,18.80
2018-06-29T03:21:23.826Z,18.70
2018-06-29T03:23:52.727Z,18.80
2018-06-29T03:26:22.190Z,18.70
2018-06-29T03:28:51.147Z,18.80
2018-06-29T03:31:20.112Z,18.80
2018-06-29T03:33:49.033Z,18.80
2018-06-29T03:36:17.973Z,18.80
2018-06-29T03:38:46.958Z,18.70
2018-06-29T03:41:15.907Z,18.70
2018-06-29T03:43:44.827Z,18.70
2018-06-29T03:46:13.806Z,18.70
2018-06-29T03:48:42.710Z,18.80
2018-06-29T03:51:11.634Z,18.80
2018-06-29T03:53:41.029Z,18.80
2018-06-29T03:56:09.966Z,18.90
2018-06-29T03:58:38.986Z,18.90
2018-06-29T04:01:07.971Z,18.90
2018-06-29T04:03:36.986Z,18.90
2018-06-29T04:06:06.479Z,18.90
2018-06-29T04:08:35.419Z,18.90
2018-06-29T04:11:04.674Z,19.00
2018-06-29T04:13:33.632Z,19.00
2018-06-29T04:16:02.528Z,19.00
2018-06-29T04:18:31.508Z,19.00
2018-06-29T04:21:00.487Z,19.10
2018-06-29T04:23:29.972Z,19.30
2018-06-29T04:25:58.903Z,19.30
2018-06-29T04:28:27.940Z,19.30
2018-06-29T04:30:56.999Z,19.40
2018-06-29T04:33:25.909Z,19.30
2018-06-29T04:35:54.867Z,19.40
2018-06-29T04:38:23.762Z,19.40
2018-06-29T04:40:52.695Z,19.40
2018-06-29T04:43:21.871Z,19.30
2018-06-29T04:45:50.869Z,19.20
2018-06-29T04:48:19.778Z,19.20
2018-06-29T04:50:48.699Z,19.20
2018-06-29T04:53:17.614Z,19.20
2018-06-29T04:55:46.534Z,19.20
2018-06-29T04:58:15.904Z,19.30
2018-06-29T05:00:44.793Z,19.30
2018-06-29T05:03:13.713Z,19.30
2018-06-29T05:05:42.838Z,19.40
2018-06-29T05:08:11.781Z,19.50
2018-06-29T05:10:40.688Z,19.50
2018-06-29T05:13:09.739Z,19.40
2018-06-29T05:15:38.724Z,19.40
2018-06-29T05:18:07.968Z,19.30
2018-06-29T05:20:36.886Z,19.30
2018-06-29T05:23:05.998Z,19.40
2018-06-29T05:25:35.179Z,19.50
2018-06-29T05:28:04.134Z,19.50
2018-06-29T05:30:33.568Z,19.50
2018-06-29T05:33:02.502Z,19.60
2018-06-29T05:35:31.576Z,19.70
2018-06-29T05:38:00.474Z,19.90
2018-06-29T05:40:29.432Z,20.10
2018-06-29T05:42:58.322Z,20.10
2018-06-29T05:45:27.653Z,20.30
2018-06-29T05:47:56.570Z,20.40
2018-06-29T05:50:25.543Z,20.50
2018-06-29T05:52:54.519Z,20.50
2018-06-29T05:55:23.439Z,20.70
2018-06-29T05:57:52.379Z,21.00
2018-06-29T06:00:21.300Z,21.20
2018-06-29T06:02:50.257Z,21.40
2018-06-29T06:05:19.160Z,21.80
2018-06-29T06:07:48.094Z,22.80
2018-06-29T06:10:16.998Z,25.40
2018-06-29T06:12:45.933Z,28.30
2018-06-29T06:15:15.323Z,30.70
2018-06-29T06:17:44.294Z,31.80
2018-06-29T06:20:15.457Z,32.60
2018-06-29T06:22:44.518Z,33.00
2018-06-29T06:25:13.500Z,34.20
2018-06-29T06:27:42.499Z,34.50
2018-06-29T06:30:11.476Z,34.10
2018-06-29T06:32:40.391Z,34.20
2018-06-29T06:35:09.854Z,35.20
2018-06-29T06:37:38.765Z,35.90
2018-06-29T06:40:07.808Z,35.50
2018-06-29T06:42:37.338Z,34.60
2018-06-29T06:45:06.661Z,34.70
2018-06-29T06:47:35.721Z,34.90
2018-06-29T06:50:04.696Z,35.70
2018-06-29T06:52:33.690Z,36.20
2018-06-29T06:55:02.568Z,34.90
2018-06-29T06:57:31.493Z,35.00
2018-06-29T07:00:00.451Z,35.00
2018-06-29T07:02:29.446Z,35.50
2018-06-29T07:04:58.388Z,36.00
2018-06-29T07:07:27.335Z,36.40
2018-06-29T07:09:56.299Z,37.60
2018-06-29T07:12:25.283Z,38.80
2018-06-29T07:14:54.258Z,40.00
2018-06-29T07:17:23.170Z,39.60
2018-06-29T07:19:52.128Z,38.90
2018-06-29T07:22:21.042Z,37.80
2018-06-29T07:24:50.034Z,36.90
2018-06-29T07:27:19.575Z,36.40
2018-06-29T07:29:48.581Z,36.00
2018-06-29T07:32:17.545Z,36.10
2018-06-29T07:34:46.462Z,37.30
2018-06-29T07:37:15.402Z,37.60
2018-06-29T07:39:44.292Z,36.50
2018-06-29T07:42:13.237Z,35.90
2018-06-29T07:44:42.146Z,36.30
2018-06-29T07:47:11.055Z,37.30
2018-06-29T07:49:40.514Z,37.60
2018-06-29T07:52:09.812Z,37.70
2018-06-29T07:54:38.707Z,36.70
2018-06-29T07:57:07.620Z,34.90
2018-06-29T07:59:36.668Z,33.10
2018-06-29T08:02:05.670Z,32.40
2018-06-29T08:04:34.619Z,33.00
2018-06-29T08:07:03.523Z,33.30
2018-06-29T08:09:32.429Z,31.70
2018-06-29T08:12:01.467Z,31.60
2018-06-29T08:14:30.406Z,33.50
2018-06-29T08:16:59.414Z,34.80
2018-06-29T08:19:28.355Z,35.10
2018-06-29T08:21:57.387Z,34.90
2018-06-29T08:24:27.280Z,35.00
2018-06-29T08:26:56.198Z,35.90
2018-06-29T08:29:25.171Z,36.20
2018-06-29T08:31:54.137Z,36.40
2018-06-29T08:34:23.031Z,35.70
2018-06-29T08:36:51.968Z,35.60
2018-06-29T08:39:20.899Z,36.80
2018-06-29T08:41:50.479Z,37.00
2018-06-29T08:44:19.444Z,36.80
2018-06-29T08:46:48.386Z,36.20
2018-06-29T08:49:17.346Z,36.80
2018-06-29T08:51:46.299Z,37.80
2018-06-29T08:54:15.183Z,36.90
2018-06-29T08:56:44.165Z,37.30
2018-06-29T08:59:13.068Z,36.00
2018-06-29T09:01:41.986Z,34.70
2018-06-29T09:04:10.952Z,34.60
2018-06-29T09:06:39.848Z,34.90
2018-06-29T09:09:09.791Z,35.10
2018-06-29T09:11:38.995Z,35.30
2018-06-29T09:14:08.443Z,35.60
2018-06-29T09:16:37.431Z,35.00
2018-06-29T09:19:06.461Z,35.10
2018-06-29T09:21:35.468Z,35.20
2018-06-29T09:24:04.477Z,35.60
2018-06-29T09:26:33.387Z,35.40
2018-06-29T09:29:02.334Z,34.70
2018-06-29T09:31:31.428Z,33.30
2018-06-29T09:34:00.328Z,33.60
2018-06-29T09:36:29.387Z,34.10
2018-06-29T09:38:58.663Z,33.20
2018-06-29T09:41:28.017Z,31.90
2018-06-29T09:43:56.926Z,31.40
2018-06-29T09:46:25.867Z,31.20
2018-06-29T09:48:54.839Z,30.60
2018-06-29T09:51:23.805Z,30.30
2018-06-29T09:53:52.708Z,30.00
2018-06-29T09:56:21.675Z,29.40
2018-06-29T09:58:50.574Z,28.80
2018-06-29T10:01:19.652Z,28.40
2018-06-29T10:03:48.531Z,28.60
2018-06-29T10:06:17.447Z,28.80
2018-06-29T10:08:46.371Z,28.80
2018-06-29T10:11:15.307Z,29.00
2018-06-29T10:13:44.233Z,29.20
2018-06-29T10:16:13.124Z,28.90
2018-06-29T10:18:42.059Z,28.40
2018-06-29T10:23:40.024Z,28.30
2018-06-29T10:26:08.936Z,28.30
2018-06-29T10:31:07.098Z,28.80
2018-06-29T10:33:36.007Z,28.70
2018-06-29T10:36:05.391Z,28.30
2018-06-29T10:38:34.277Z,28.10
2018-06-29T10:41:03.200Z,28.20
2018-06-29T10:43:32.082Z,28.30
2018-06-29T10:46:01.035Z,28.40
2018-06-29T10:48:29.941Z,28.50
2018-06-29T10:50:58.896Z,28.50
2018-06-29T10:53:28.303Z,28.80
2018-06-29T10:55:57.609Z,29.10
2018-06-29T10:58:26.484Z,29.20
2018-06-29T11:00:55.466Z,29.20
2018-06-29T11:03:24.895Z,28.80
2018-06-29T11:05:53.801Z,28.30
2018-06-29T11:08:22.761Z,28.00
2018-06-29T11:10:51.792Z,28.10
2018-06-29T11:13:20.766Z,28.30
2018-06-29T11:15:49.680Z,28.50
2018-06-29T11:18:18.634Z,28.80
2018-06-29T11:20:47.567Z,29.20
2018-06-29T11:23:16.515Z,29.20
2018-06-29T11:25:45.413Z,29.20
2018-06-29T11:28:14.381Z,29.30
2018-06-29T11:30:43.339Z,29.10
2018-06-29T11:33:12.250Z,28.90
2018-06-29T11:35:41.178Z,28.90
2018-06-29T11:40:38.700Z,29.30
2018-06-29T11:43:07.624Z,29.30
2018-06-29T11:45:36.621Z,29.50
2018-06-29T11:48:06.172Z,29.30
2018-06-29T11:50:35.126Z,29.10
2018-06-29T11:53:04.109Z,29.00
2018-06-29T11:55:33.043Z,28.60
2018-06-29T11:58:02.482Z,28.90
2018-06-29T12:00:31.498Z,29.10
2018-06-29T12:03:00.415Z,29.30
2018-06-29T12:05:29.343Z,29.30
2018-06-29T12:07:58.323Z,28.90
2018-06-29T12:10:27.219Z,28.90
2018-06-29T12:12:56.150Z,28.90
2018-06-29T12:15:25.035Z,28.90
2018-06-29T12:17:53.970Z,28.90
2018-06-29T12:20:22.881Z,28.90
2018-06-29T12:22:51.843Z,29.00
2018-06-29T12:25:21.366Z,28.60
2018-06-29T12:27:50.293Z,28.40
2018-06-29T12:30:19.203Z,28.40
2018-06-29T12:32:48.188Z,28.40
2018-06-29T12:35:17.085Z,28.60
2018-06-29T12:37:46.336Z,28.80
2018-06-29T12:40:15.428Z,28.80
2018-06-29T12:42:44.395Z,28.90
2018-06-29T12:45:13.363Z,28.80
2018-06-29T12:47:42.264Z,28.80
2018-06-29T12:50:11.234Z,28.50
2018-06-29T12:52:40.535Z,28.50
2018-06-29T12:55:09.587Z,28.60
2018-06-29T12:57:38.483Z,28.60
2018-06-29T13:02:35.976Z,28.50
2018-06-29T13:05:04.994Z,28.40
2018-06-29T13:07:33.913Z,28.40
2018-06-29T13:10:02.802Z,28.60
2018-06-29T13:12:31.836Z,28.60
2018-06-29T13:15:00.726Z,28.50
2018-06-29T13:17:29.744Z,28.40
2018-06-29T13:19:58.624Z,28.60
2018-06-29T13:22:27.535Z,28.60
2018-06-29T13:24:56.490Z,28.70
2018-06-29T13:27:25.442Z,28.80
2018-06-29T13:29:54.355Z,28.70
2018-06-29T13:32:23.399Z,28.90
2018-06-29T13:34:52.367Z,29.00
2018-06-29T13:37:21.786Z,29.00
2018-06-29T13:39:50.743Z,28.90
2018-06-29T13:42:20.510Z,28.90
2018-06-29T13:44:49.451Z,28.90
2018-06-29T13:47:18.364Z,29.10
2018-06-29T13:49:47.288Z,29.00
2018-06-29T13:52:16.325Z,29.00
2018-06-29T13:54:45.262Z,28.80
2018-06-29T13:57:15.339Z,28.60
2018-06-29T13:59:44.318Z,28.60
2018-06-29T14:02:13.272Z,28.50
2018-06-29T14:04:42.160Z,28.50
2018-06-29T14:07:11.104Z,28.80
2018-06-29T14:09:40.059Z,28.90
2018-06-29T14:12:09.030Z,28.60
2018-06-29T14:14:37.963Z,28.70
2018-06-29T14:17:07.473Z,28.70
2018-06-29T14:19:36.445Z,28.80
2018-06-29T14:22:05.380Z,28.80
2018-06-29T14:24:34.318Z,28.60
2018-06-29T14:27:03.324Z,28.40
2018-06-29T14:29:32.245Z,28.30
2018-06-29T14:32:01.199Z,28.30
2018-06-29T14:34:30.111Z,28.40
2018-06-29T14:36:59.038Z,28.50
2018-06-29T14:39:27.974Z,28.60
2018-06-29T14:41:57.362Z,28.50
2018-06-29T14:44:26.307Z,28.40
2018-06-29T14:46:55.223Z,28.50
2018-06-29T14:49:24.682Z,28.60
2018-06-29T14:51:53.670Z,28.70
2018-06-29T14:54:22.596Z,28.60
2018-06-29T14:56:51.571Z,28.50
2018-06-29T15:01:48.994Z,28.30
2018-06-29T15:04:18.043Z,28.20
2018-06-29T15:06:46.946Z,28.00
2018-06-29T15:09:15.850Z,28.00
2018-06-29T15:11:44.783Z,27.80
2018-06-29T15:14:13.689Z,27.80
2018-06-29T15:16:42.679Z,27.70
2018-06-29T15:19:11.595Z,27.70
2018-06-29T15:21:41.064Z,27.60
2018-06-29T15:24:09.974Z,27.70
2018-06-29T15:26:39.570Z,27.80
2018-06-29T15:29:08.449Z,27.80
2018-06-29T15:34:05.982Z,27.70
2018-06-29T15:36:34.933Z,27.60
2018-06-29T15:39:04.446Z,27.60
2018-06-29T15:41:33.329Z,27.50
2018-06-29T15:44:02.259Z,27.50
2018-06-29T15:46:31.171Z,27.50
2018-06-29T15:49:00.174Z,27.70
2018-06-29T15:51:29.111Z,27.80
2018-06-29T15:53:58.075Z,28.00
2018-06-29T15:56:27.431Z,28.10
2018-06-29T15:58:56.409Z,28.10
2018-06-29T16:01:25.868Z,28.00
2018-06-29T16:03:54.828Z,27.90
2018-06-29T16:06:23.741Z,28.00
2018-06-29T16:08:53.092Z,28.00
2018-06-29T16:11:22.500Z,28.20
2018-06-29T16:13:51.418Z,28.50
2018-06-29T16:16:20.344Z,28.50
2018-06-29T16:18:49.839Z,28.40
2018-06-29T16:21:18.774Z,28.50
2018-06-29T16:23:47.706Z,28.60
2018-06-29T16:26:16.642Z,28.60
2018-06-29T16:28:45.611Z,28.60
2018-06-29T16:31:14.577Z,28.60
2018-06-29T16:33:43.536Z,28.60
2018-06-29T16:36:12.479Z,28.60
2018-06-29T16:38:41.732Z,28.40
2018-06-29T16:41:10.653Z,28.10
2018-06-29T16:43:39.571Z,28.00
2018-06-29T16:46:08.656Z,27.90
2018-06-29T16:48:38.743Z,27.80
2018-06-29T16:51:08.631Z,27.80
2018-06-29T16:53:37.618Z,27.90
2018-06-29T16:56:06.549Z,27.90
2018-06-29T16:58:35.583Z,28.00
2018-06-29T17:01:04.490Z,28.00
2018-06-29T17:03:33.423Z,28.00
2018-06-29T17:06:02.355Z,27.80
2018-06-29T17:08:31.895Z,27.70
2018-06-29T17:11:00.783Z,27.50
2018-06-29T17:13:30.142Z,27.40
2018-06-29T17:15:59.122Z,27.40
2018-06-29T17:18:28.036Z,27.40
2018-06-29T17:20:56.994Z,27.20
2018-06-29T17:23:25.895Z,27.10
2018-06-29T17:25:54.794Z,27.00
2018-06-29T17:28:23.839Z,27.00
2018-06-29T17:30:52.794Z,26.90
2018-06-29T17:33:32.048Z,26.90
2018-06-29T17:35:50.698Z,26.80
2018-06-29T17:38:19.609Z,26.80
2018-06-29T17:40:48.639Z,26.70
2018-06-29T17:43:17.499Z,26.70
2018-06-29T17:45:46.450Z,26.80
2018-06-29T17:48:15.372Z,26.70
2018-06-29T17:50:44.465Z,26.70
2018-06-29T17:53:13.630Z,26.70
2018-06-29T17:55:42.729Z,26.70
2018-06-29T17:58:11.916Z,26.60
2018-06-29T18:00:41.019Z,26.50
2018-06-29T18:03:10.199Z,26.40
2018-06-29T18:05:39.449Z,26.30
2018-06-29T18:08:08.717Z,26.30
2018-06-29T18:10:38.495Z,26.20
2018-06-29T18:13:07.911Z,26.10
2018-06-29T18:15:38.015Z,26.00
2018-06-29T18:18:07.151Z,25.90
2018-06-29T18:20:36.970Z,25.90
2018-06-29T18:23:06.155Z,25.70
2018-06-29T18:25:35.367Z,25.60
2018-06-29T18:28:04.600Z,25.60
2018-06-29T18:30:33.821Z,25.50
2018-06-29T18:33:02.974Z,25.40
2018-06-29T18:38:01.080Z,25.30
2018-06-29T18:40:30.321Z,25.30
2018-06-29T18:42:59.461Z,25.20
2018-06-29T18:45:29.222Z,25.20
2018-06-29T18:47:58.478Z,25.20
2018-06-29T18:50:27.778Z,25.20
2018-06-29T18:52:57.502Z,25.10
2018-06-29T18:55:26.659Z,25.00
2018-06-29T18:57:55.710Z,25.00
2018-06-29T19:00:24.843Z,24.90
2018-06-29T19:02:53.950Z,24.80
2018-06-29T19:05:23.715Z,24.80
2018-06-29T19:07:52.857Z,24.70
2018-06-29T19:10:22.160Z,24.70
2018-06-29T19:12:52.018Z,24.60
2018-06-29T19:15:21.205Z,24.60
2018-06-29T19:17:50.478Z,24.50
2018-06-29T19:20:20.272Z,24.50
2018-06-29T19:22:49.415Z,24.30
2018-06-29T19:25:18.576Z,24.30
2018-06-29T19:27:47.752Z,24.10
2018-06-29T19:30:16.978Z,23.90
2018-06-29T19:32:45.892Z,23.60
2018-06-29T19:35:14.976Z,23.50
2018-06-29T19:37:44.840Z,23.30
2018-06-29T19:40:14.223Z,23.10
2018-06-29T19:42:43.884Z,22.90
2018-06-29T19:45:12.897Z,22.70
2018-06-29T19:47:42.043Z,22.60
2018-06-29T19:50:11.203Z,22.40
2018-06-29T19:52:40.329Z,22.20
2018-06-29T19:55:09.603Z,22.00
2018-06-29T19:57:38.917Z,21.90
2018-06-29T20:00:08.322Z,21.80
2018-06-29T20:02:37.638Z,21.70
2018-06-29T20:05:06.843Z,21.50
2018-06-29T20:07:36.084Z,21.40
2018-06-29T20:10:05.489Z,21.30
2018-06-29T20:12:34.545Z,21.20
2018-06-29T20:15:03.777Z,21.10
2018-06-29T20:17:32.955Z,21.00
2018-06-29T20:20:01.883Z,20.90
2018-06-29T20:22:31.120Z,20.70
2018-06-29T20:25:00.294Z,20.60
2018-06-29T20:27:30.123Z,20.40
2018-06-29T20:29:59.378Z,20.20
2018-06-29T20:32:29.316Z,20.00
2018-06-29T20:34:58.496Z,19.90
2018-06-29T20:37:27.626Z,19.90
2018-06-29T20:39:56.887Z,19.80
2018-06-29T20:42:26.317Z,19.70
2018-06-29T20:44:55.783Z,19.60
2018-06-29T20:47:25.001Z,19.50
2018-06-29T20:49:54.170Z,19.50
2018-06-29T20:52:23.294Z,19.30
2018-06-29T20:54:52.458Z,19.10
2018-06-29T20:57:21.365Z,18.90
2018-06-29T20:59:50.267Z,18.80
2018-06-29T21:02:19.909Z,18.70
2018-06-29T21:04:49.205Z,18.50
2018-06-29T21:09:47.217Z,18.30
2018-06-29T21:12:16.367Z,18.10
2018-06-29T21:14:45.768Z,17.90
2018-06-29T21:17:14.914Z,17.80
2018-06-29T21:19:44.209Z,17.70
2018-06-29T21:22:13.513Z,17.60
2018-06-29T21:24:42.732Z,17.50
2018-06-29T21:27:12.847Z,17.50
2018-06-29T21:29:41.795Z,17.50
2018-06-29T21:32:11.196Z,17.40
2018-06-29T21:34:41.146Z,17.20
2018-06-29T21:37:10.254Z,17.10
2018-06-29T21:39:39.587Z,17.00
2018-06-29T21:42:09.123Z,16.90
2018-06-29T21:47:07.163Z,16.80
2018-06-29T21:49:37.289Z,16.80
2018-06-29T21:52:06.420Z,16.70
2018-06-29T21:54:35.723Z,16.60
2018-06-29T21:57:05.056Z,16.60
2018-06-29T21:59:34.626Z,16.60
2018-06-29T22:02:03.826Z,16.60
2018-06-29T22:04:33.599Z,16.40
2018-06-29T22:07:02.819Z,16.30
2018-06-29T22:09:31.965Z,16.30
2018-06-29T22:12:01.182Z,16.30
2018-06-29T22:14:30.318Z,16.30
2018-06-29T22:16:59.463Z,16.20
2018-06-29T22:21:57.562Z,16.20
2018-06-29T22:24:26.918Z,16.20
2018-06-29T22:26:56.069Z,16.20
2018-06-29T22:29:25.183Z,16.20
2018-06-29T22:31:54.554Z,16.20
2018-06-29T22:34:23.778Z,16.10
2018-06-29T22:36:53.036Z,16.00
2018-06-29T22:39:22.187Z,16.00
2018-06-29T22:41:51.455Z,15.90
2018-06-29T22:44:20.649Z,15.80
2018-06-29T22:46:50.069Z,15.80
2018-06-29T22:49:18.959Z,15.70
2018-06-29T22:51:48.646Z,15.60
2018-06-29T22:54:17.940Z,15.40
2018-06-29T22:56:47.171Z,15.40
2018-06-29T22:59:16.227Z,15.40
2018-06-29T23:01:45.877Z,15.30
2018-06-29T23:04:17.325Z,15.30
2018-06-29T23:06:46.687Z,15.20
2018-06-29T23:09:15.968Z,15.20
2018-06-29T23:11:45.354Z,15.20
2018-06-29T23:14:15.027Z,15.10
2018-06-29T23:16:44.162Z,15.10
2018-06-29T23:19:13.373Z,15.10
2018-06-29T23:21:42.774Z,15.10
2018-06-29T23:24:12.003Z,15.10
2018-06-29T23:26:41.168Z,15.00
2018-06-29T23:29:10.712Z,15.00
2018-06-29T23:31:39.951Z,15.00
2018-06-29T23:34:09.176Z,15.10
2018-06-29T23:36:38.334Z,15.00
2018-06-29T23:39:09.161Z,15.00
2018-06-29T23:41:38.415Z,15.00
2018-06-29T23:44:07.784Z,14.90
2018-06-29T23:46:37.186Z,14.80
2018-06-29T23:49:06.487Z,14.80
2018-06-29T23:51:35.676Z,14.80
2018-06-29T23:54:04.919Z,14.80
2018-06-29T23:56:34.082Z,14.70
2018-06-29T23:59:03.473Z,14.60
